sensor_id;sensor_type;location;lat;lon;timestamp;pressure;altitude;pressure_sealevel;temperature;humidity
62548;BME280;48602;45.192;5.722;2023-03-01T00:01:28;99538.09;;;3.97;59.90
62548;BME280;48602;45.192;5.722;2023-03-01T00:03:55;99543.31;;;3.97;59.77
62548;BME280;48602;45.192;5.722;2023-03-01T00:06:21;99544.19;;;3.99;59.82
62548;BME280;48602;45.192;5.722;2023-03-01T00:08:48;99538.06;;;4.02;59.53
62548;BME280;48602;45.192;5.722;2023-03-01T00:11:16;99537.16;;;4.03;59.75
62548;BME280;48602;45.192;5.722;2023-03-01T00:13:43;99537.16;;;4.04;59.53
62548;BME280;48602;45.192;5.722;2023-03-01T00:16:11;99544.09;;;4.05;59.67
62548;BME280;48602;45.192;5.722;2023-03-01T00:18:38;99543.22;;;4.06;59.74
62548;BME280;48602;45.192;5.722;2023-03-01T00:21:04;99544.97;;;4.07;59.64
62548;BME280;48602;45.192;5.722;2023-03-01T00:23:30;99534.53;;;4.07;59.50
62548;BME280;48602;45.192;5.722;2023-03-01T00:25:56;99528.47;;;4.05;59.84
62548;BME280;48602;45.192;5.722;2023-03-01T00:28:21;99525.84;;;4.05;59.44
62548;BME280;48602;45.192;5.722;2023-03-01T00:30:47;99535.41;;;4.06;59.91
62548;BME280;48602;45.192;5.722;2023-03-01T00:33:13;99537.16;;;4.07;59.79
62548;BME280;48602;45.192;5.722;2023-03-01T00:35:38;99542.34;;;4.10;59.71
62548;BME280;48602;45.192;5.722;2023-03-01T00:38:04;99534.50;;;4.13;59.67
62548;BME280;48602;45.192;5.722;2023-03-01T00:40:33;99528.41;;;4.16;59.43
62548;BME280;48602;45.192;5.722;2023-03-01T00:42:58;99526.66;;;4.18;59.48
62548;BME280;48602;45.192;5.722;2023-03-01T00:45:24;99520.53;;;4.19;59.65
62548;BME280;48602;45.192;5.722;2023-03-01T00:47:50;99526.59;;;4.19;59.39
62548;BME280;48602;45.192;5.722;2023-03-01T00:50:17;99530.06;;;4.21;59.65
62548;BME280;48602;45.192;5.722;2023-03-01T00:52:43;99524.84;;;4.23;59.46
62548;BME280;48602;45.192;5.722;2023-03-01T00:55:09;99525.69;;;4.27;59.33
62548;BME280;48602;45.192;5.722;2023-03-01T00:57:35;99530.91;;;4.28;59.39
62548;BME280;48602;45.192;5.722;2023-03-01T01:00:00;99523.94;;;4.30;59.43
62548;BME280;48602;45.192;5.722;2023-03-01T01:02:26;99524.78;;;4.32;59.55
62548;BME280;48602;45.192;5.722;2023-03-01T01:04:51;99517.81;;;4.33;59.27
62548;BME280;48602;45.192;5.722;2023-03-01T01:07:17;99512.53;;;4.36;59.15
62548;BME280;48602;45.192;5.722;2023-03-01T01:09:45;99506.44;;;4.38;58.96
62548;BME280;48602;45.192;5.722;2023-03-01T01:12:11;99503.81;;;4.40;58.95
62548;BME280;48602;45.192;5.722;2023-03-01T01:14:36;99500.34;;;4.38;59.19
62548;BME280;48602;45.192;5.722;2023-03-01T01:17:02;99502.97;;;4.38;58.92
62548;BME280;48602;45.192;5.722;2023-03-01T01:19:29;99496.06;;;4.35;58.86
62548;BME280;48602;45.192;5.722;2023-03-01T01:21:57;99501.28;;;4.34;59.29
62548;BME280;48602;45.192;5.722;2023-03-01T01:24:23;99496.94;;;4.33;59.22
62548;BME280;48602;45.192;5.722;2023-03-01T01:26:48;99494.34;;;4.33;59.33
62548;BME280;48602;45.192;5.722;2023-03-01T01:29:14;99491.72;;;4.34;59.27
62548;BME280;48602;45.192;5.722;2023-03-01T01:31:41;99489.91;;;4.36;59.07
62548;BME280;48602;45.192;5.722;2023-03-01T01:34:08;99496.00;;;4.38;59.17
62548;BME280;48602;45.192;5.722;2023-03-01T01:36:37;99488.16;;;4.38;59.10
62548;BME280;48602;45.192;5.722;2023-03-01T01:39:02;99487.28;;;4.41;59.35
62548;BME280;48602;45.192;5.722;2023-03-01T01:41:35;99478.56;;;4.43;59.33
62548;BME280;48602;45.192;5.722;2023-03-01T01:47:01;99471.59;;;4.45;58.89
62548;BME280;48602;45.192;5.722;2023-03-01T01:49:42;99464.63;;;4.44;59.15
62548;BME280;48602;45.192;5.722;2023-03-01T01:52:32;99460.28;;;4.43;59.12
62548;BME280;48602;45.192;5.722;2023-03-01T01:55:09;99462.00;;;4.47;59.06
62548;BME280;48602;45.192;5.722;2023-03-01T01:57:41;99461.97;;;4.50;58.91
62548;BME280;48602;45.192;5.722;2023-03-01T02:00:18;99455.81;;;4.53;58.79
62548;BME280;48602;45.192;5.722;2023-03-01T02:02:46;99452.34;;;4.54;58.74
62548;BME280;48602;45.192;5.722;2023-03-01T02:05:29;99454.06;;;4.56;58.90
62548;BME280;48602;45.192;5.722;2023-03-01T02:07:59;99453.16;;;4.57;58.51
62548;BME280;48602;45.192;5.722;2023-03-01T02:10:25;99454.91;;;4.59;58.62
62548;BME280;48602;45.192;5.722;2023-03-01T02:12:52;99450.53;;;4.62;58.85
62548;BME280;48602;45.192;5.722;2023-03-01T02:15:19;99454.84;;;4.65;58.66
62548;BME280;48602;45.192;5.722;2023-03-01T02:17:44;99440.03;;;4.65;58.30
62548;BME280;48602;45.192;5.722;2023-03-01T02:20:19;99445.25;;;4.67;58.58
62548;BME280;48602;45.192;5.722;2023-03-01T02:22:48;99439.16;;;4.68;58.55
62548;BME280;48602;45.192;5.722;2023-03-01T02:30:21;99433.00;;;4.70;58.22
62548;BME280;48602;45.192;5.722;2023-03-01T02:32:47;99428.66;;;4.71;58.27
62548;BME280;48602;45.192;5.722;2023-03-01T02:35:16;99424.28;;;4.71;58.22
62548;BME280;48602;45.192;5.722;2023-03-01T02:38:07;99419.94;;;4.70;58.76
62548;BME280;48602;45.192;5.722;2023-03-01T02:40:34;99423.41;;;4.71;58.15
62548;BME280;48602;45.192;5.722;2023-03-01T02:43:01;99410.38;;;4.69;58.66
62548;BME280;48602;45.192;5.722;2023-03-01T02:45:29;99406.09;;;4.67;58.29
62548;BME280;48602;45.192;5.722;2023-03-01T02:47:56;99412.16;;;4.67;58.30
62548;BME280;48602;45.192;5.722;2023-03-01T02:52:59;99396.50;;;4.67;58.41
62548;BME280;48602;45.192;5.722;2023-03-01T02:55:27;99401.75;;;4.66;57.96
62548;BME280;48602;45.192;5.722;2023-03-01T02:57:53;99398.25;;;4.67;58.27
62548;BME280;48602;45.192;5.722;2023-03-01T03:00:26;99391.28;;;4.67;58.71
62548;BME280;48602;45.192;5.722;2023-03-01T03:02:54;99386.94;;;4.68;58.45
62548;BME280;48602;45.192;5.722;2023-03-01T03:05:30;99382.56;;;4.68;58.38
62548;BME280;48602;45.192;5.722;2023-03-01T03:07:59;99373.91;;;4.63;58.26
62548;BME280;48602;45.192;5.722;2023-03-01T03:10:30;99380.88;;;4.63;58.65
62548;BME280;48602;45.192;5.722;2023-03-01T03:13:01;99378.31;;;4.58;58.42
62548;BME280;48602;45.192;5.722;2023-03-01T03:15:27;99378.31;;;4.58;58.59
62548;BME280;48602;45.192;5.722;2023-03-01T03:17:55;99379.22;;;4.54;58.67
62548;BME280;48602;45.192;5.722;2023-03-01T03:20:26;99379.22;;;4.54;58.80
62548;BME280;48602;45.192;5.722;2023-03-01T03:22:54;99381.84;;;4.54;58.79
62548;BME280;48602;45.192;5.722;2023-03-01T03:25:21;99378.38;;;4.53;58.60
62548;BME280;48602;45.192;5.722;2023-03-01T03:27:48;99373.16;;;4.53;59.14
62548;BME280;48602;45.192;5.722;2023-03-01T03:30:17;99367.91;;;4.53;58.65
62548;BME280;48602;45.192;5.722;2023-03-01T03:32:44;99367.91;;;4.55;58.64
62548;BME280;48602;45.192;5.722;2023-03-01T03:35:28;99376.59;;;4.55;58.65
62548;BME280;48602;45.192;5.722;2023-03-01T03:37:55;99376.63;;;4.54;59.15
62548;BME280;48602;45.192;5.722;2023-03-01T03:40:34;99374.03;;;4.52;58.70
62548;BME280;48602;45.192;5.722;2023-03-01T03:43:02;99375.75;;;4.53;58.73
62548;BME280;48602;45.192;5.722;2023-03-01T03:45:27;99373.13;;;4.55;58.63
62548;BME280;48602;45.192;5.722;2023-03-01T03:47:53;99373.13;;;4.56;59.33
62548;BME280;48602;45.192;5.722;2023-03-01T03:50:22;99372.22;;;4.57;58.84
62548;BME280;48602;45.192;5.722;2023-03-01T03:52:49;99371.38;;;4.57;58.62
62548;BME280;48602;45.192;5.722;2023-03-01T03:55:14;99367.91;;;4.56;58.77
62548;BME280;48602;45.192;5.722;2023-03-01T03:57:44;99368.75;;;4.59;58.71
62548;BME280;48602;45.192;5.722;2023-03-01T04:00:18;99366.97;;;4.61;58.76
62548;BME280;48602;45.192;5.722;2023-03-01T04:02:45;99363.50;;;4.62;58.92
62548;BME280;48602;45.192;5.722;2023-03-01T04:05:13;99366.97;;;4.62;58.94
62548;BME280;48602;45.192;5.722;2023-03-01T04:07:40;99367.84;;;4.61;58.61
62548;BME280;48602;45.192;5.722;2023-03-01T04:10:09;99360.03;;;4.58;58.91
62548;BME280;48602;45.192;5.722;2023-03-01T04:12:35;99357.44;;;4.58;58.60
62548;BME280;48602;45.192;5.722;2023-03-01T04:15:02;99358.34;;;4.55;58.87
62548;BME280;48602;45.192;5.722;2023-03-01T04:17:39;99359.22;;;4.54;59.08
62548;BME280;48602;45.192;5.722;2023-03-01T04:20:05;99353.09;;;4.55;59.05
62548;BME280;48602;45.192;5.722;2023-03-01T04:22:31;99353.09;;;4.55;58.94
62548;BME280;48602;45.192;5.722;2023-03-01T04:24:58;99346.16;;;4.54;59.02
62548;BME280;48602;45.192;5.722;2023-03-01T04:27:35;99344.41;;;4.55;59.09
62548;BME280;48602;45.192;5.722;2023-03-01T04:30:02;99347.00;;;4.56;58.81
62548;BME280;48602;45.192;5.722;2023-03-01T04:32:28;99338.31;;;4.54;59.05
62548;BME280;48602;45.192;5.722;2023-03-01T04:34:53;99343.53;;;4.54;59.16
62548;BME280;48602;45.192;5.722;2023-03-01T04:37:19;99340.91;;;4.56;59.03
62548;BME280;48602;45.192;5.722;2023-03-01T04:39:44;99346.16;;;4.56;59.28
62548;BME280;48602;45.192;5.722;2023-03-01T04:42:13;99348.75;;;4.56;59.23
62548;BME280;48602;45.192;5.722;2023-03-01T04:44:39;99347.00;;;4.56;59.15
62548;BME280;48602;45.192;5.722;2023-03-01T04:47:04;99347.00;;;4.56;59.03
62548;BME280;48602;45.192;5.722;2023-03-01T04:49:30;99345.25;;;4.57;59.13
62548;BME280;48602;45.192;5.722;2023-03-01T04:51:56;99350.47;;;4.59;59.13
62548;BME280;48602;45.192;5.722;2023-03-01T04:54:23;99347.84;;;4.59;58.96
62548;BME280;48602;45.192;5.722;2023-03-01T04:56:48;99352.19;;;4.61;59.26
62548;BME280;48602;45.192;5.722;2023-03-01T04:59:14;99352.19;;;4.61;59.03
62548;BME280;48602;45.192;5.722;2023-03-01T05:01:39;99353.06;;;4.60;58.89
62548;BME280;48602;45.192;5.722;2023-03-01T05:04:08;99349.59;;;4.60;58.60
62548;BME280;48602;45.192;5.722;2023-03-01T05:06:38;99347.00;;;4.58;58.99
62548;BME280;48602;45.192;5.722;2023-03-01T05:09:04;99345.28;;;4.55;58.65
62548;BME280;48602;45.192;5.722;2023-03-01T05:11:31;99347.88;;;4.55;58.98
62548;BME280;48602;45.192;5.722;2023-03-01T05:14:02;99350.50;;;4.54;58.86
62548;BME280;48602;45.192;5.722;2023-03-01T05:16:28;99347.88;;;4.55;58.91
62548;BME280;48602;45.192;5.722;2023-03-01T05:18:55;99343.53;;;4.56;58.90
62548;BME280;48602;45.192;5.722;2023-03-01T05:21:21;99344.41;;;4.56;59.03
62548;BME280;48602;45.192;5.722;2023-03-01T05:23:47;99345.25;;;4.59;59.13
62548;BME280;48602;45.192;5.722;2023-03-01T05:26:13;99344.38;;;4.58;58.46
62548;BME280;48602;45.192;5.722;2023-03-01T05:28:39;99339.16;;;4.58;58.78
62548;BME280;48602;45.192;5.722;2023-03-01T05:31:05;99335.66;;;4.59;58.81
62548;BME280;48602;45.192;5.722;2023-03-01T05:33:38;99338.25;;;4.61;58.84
62548;BME280;48602;45.192;5.722;2023-03-01T05:36:05;99341.78;;;4.58;58.81
62548;BME280;48602;45.192;5.722;2023-03-01T05:38:31;99337.44;;;4.57;58.85
62548;BME280;48602;45.192;5.722;2023-03-01T05:40:56;99333.97;;;4.55;58.76
62548;BME280;48602;45.192;5.722;2023-03-01T05:43:22;99331.38;;;4.53;58.81
62548;BME280;48602;45.192;5.722;2023-03-01T05:45:47;99331.44;;;4.50;58.87
62548;BME280;48602;45.192;5.722;2023-03-01T05:48:13;99336.69;;;4.49;59.11
62548;BME280;48602;45.192;5.722;2023-03-01T05:50:41;99334.06;;;4.49;59.15
62548;BME280;48602;45.192;5.722;2023-03-01T05:55:37;99334.13;;;4.44;59.26
62548;BME280;48602;45.192;5.722;2023-03-01T05:58:05;99337.59;;;4.45;59.19
62548;BME280;48602;45.192;5.722;2023-03-01T06:00:32;99329.78;;;4.43;59.50
62548;BME280;48602;45.192;5.722;2023-03-01T06:02:59;99337.63;;;4.40;59.07
62548;BME280;48602;45.192;5.722;2023-03-01T06:05:26;99336.88;;;4.34;59.52
62548;BME280;48602;45.192;5.722;2023-03-01T06:07:52;99337.75;;;4.33;59.78
62548;BME280;48602;45.192;5.722;2023-03-01T06:10:20;99336.88;;;4.32;59.94
62548;BME280;48602;45.192;5.722;2023-03-01T06:12:46;99329.91;;;4.33;59.89
62548;BME280;48602;45.192;5.722;2023-03-01T06:15:14;99326.44;;;4.32;59.55
62548;BME280;48602;45.192;5.722;2023-03-01T06:17:41;99333.38;;;4.33;60.06
62548;BME280;48602;45.192;5.722;2023-03-01T06:20:18;99328.09;;;4.36;59.52
62548;BME280;48602;45.192;5.722;2023-03-01T06:22:44;99330.69;;;4.38;59.51
62548;BME280;48602;45.192;5.722;2023-03-01T06:25:11;99334.19;;;4.38;59.59
62548;BME280;48602;45.192;5.722;2023-03-01T06:27:38;99335.06;;;4.37;59.57
62548;BME280;48602;45.192;5.722;2023-03-01T06:30:04;99331.56;;;4.40;59.46
62548;BME280;48602;45.192;5.722;2023-03-01T06:32:30;99334.19;;;4.38;59.38
62548;BME280;48602;45.192;5.722;2023-03-01T06:34:56;99324.63;;;4.37;59.60
62548;BME280;48602;45.192;5.722;2023-03-01T06:37:23;99335.03;;;4.39;59.29
62548;BME280;48602;45.192;5.722;2023-03-01T06:39:49;99332.44;;;4.39;59.55
62548;BME280;48602;45.192;5.722;2023-03-01T06:42:14;99330.69;;;4.39;59.90
62548;BME280;48602;45.192;5.722;2023-03-01T06:44:39;99329.81;;;4.39;59.48
62548;BME280;48602;45.192;5.722;2023-03-01T06:47:05;99336.81;;;4.37;59.22
62548;BME280;48602;45.192;5.722;2023-03-01T06:49:30;99342.09;;;4.34;59.21
62548;BME280;48602;45.192;5.722;2023-03-01T06:51:56;99338.63;;;4.32;59.73
62548;BME280;48602;45.192;5.722;2023-03-01T06:54:22;99337.78;;;4.28;59.50
62548;BME280;48602;45.192;5.722;2023-03-01T06:56:49;99337.81;;;4.25;59.72
62548;BME280;48602;45.192;5.722;2023-03-01T06:59:16;99336.94;;;4.26;59.60
62548;BME280;48602;45.192;5.722;2023-03-01T07:01:42;99351.75;;;4.22;59.96
62548;BME280;48602;45.192;5.722;2023-03-01T07:04:07;99339.59;;;4.21;59.93
62548;BME280;48602;45.192;5.722;2023-03-01T07:06:33;99343.09;;;4.19;59.88
62548;BME280;48602;45.192;5.722;2023-03-01T07:08:58;99345.69;;;4.19;60.08
62548;BME280;48602;45.192;5.722;2023-03-01T07:11:24;99342.28;;;4.15;60.11
62548;BME280;48602;45.192;5.722;2023-03-01T07:13:50;99344.91;;;4.12;60.16
62548;BME280;48602;45.192;5.722;2023-03-01T07:16:15;99341.47;;;4.09;60.12
62548;BME280;48602;45.192;5.722;2023-03-01T07:18:41;99345.88;;;4.04;59.93
62548;BME280;48602;45.192;5.722;2023-03-01T07:21:08;99342.38;;;4.03;60.21
62548;BME280;48602;45.192;5.722;2023-03-01T07:23:36;99345.06;;;3.99;60.00
62548;BME280;48602;45.192;5.722;2023-03-01T07:26:01;99348.56;;;3.98;60.34
62548;BME280;48602;45.192;5.722;2023-03-01T07:28:27;99345.97;;;3.93;60.35
62548;BME280;48602;45.192;5.722;2023-03-01T07:30:53;99346.03;;;3.87;60.79
62548;BME280;48602;45.192;5.722;2023-03-01T07:33:19;99352.19;;;3.83;60.67
62548;BME280;48602;45.192;5.722;2023-03-01T07:35:44;99350.47;;;3.77;60.59
62548;BME280;48602;45.192;5.722;2023-03-01T07:38:09;99348.78;;;3.72;60.68
62548;BME280;48602;45.192;5.722;2023-03-01T07:40:35;99348.00;;;3.67;60.61
62548;BME280;48602;45.192;5.722;2023-03-01T07:43:01;99346.25;;;3.64;60.91
62548;BME280;48602;45.192;5.722;2023-03-01T07:45:27;99346.28;;;3.63;60.93
62548;BME280;48602;45.192;5.722;2023-03-01T07:47:53;99352.38;;;3.62;61.25
62548;BME280;48602;45.192;5.722;2023-03-01T07:50:18;99345.41;;;3.61;61.28
62548;BME280;48602;45.192;5.722;2023-03-01T07:52:48;99348.88;;;3.63;61.21
62548;BME280;48602;45.192;5.722;2023-03-01T07:55:14;99341.94;;;3.62;61.35
62548;BME280;48602;45.192;5.722;2023-03-01T07:57:40;99346.28;;;3.63;61.47
62548;BME280;48602;45.192;5.722;2023-03-01T08:00:09;99339.34;;;3.60;61.52
62548;BME280;48602;45.192;5.722;2023-03-01T08:02:35;99334.16;;;3.57;61.89
62548;BME280;48602;45.192;5.722;2023-03-01T08:05:00;99335.03;;;3.56;60.92
62548;BME280;48602;45.192;5.722;2023-03-01T08:07:26;99330.69;;;3.55;61.46
62548;BME280;48602;45.192;5.722;2023-03-01T08:09:51;99331.56;;;3.56;61.28
62548;BME280;48602;45.192;5.722;2023-03-01T08:12:17;99329.81;;;3.58;61.20
62548;BME280;48602;45.192;5.722;2023-03-01T08:14:42;99326.28;;;3.63;61.18
62548;BME280;48602;45.192;5.722;2023-03-01T08:17:08;99324.47;;;3.70;60.90
62548;BME280;48602;45.192;5.722;2023-03-01T08:19:33;99332.22;;;3.79;61.15
62548;BME280;48602;45.192;5.722;2023-03-01T08:22:01;99331.31;;;3.84;61.13
62548;BME280;48602;45.192;5.722;2023-03-01T08:24:27;99332.97;;;3.90;61.13
62548;BME280;48602;45.192;5.722;2023-03-01T08:26:52;99339.00;;;3.97;61.00
62548;BME280;48602;45.192;5.722;2023-03-01T08:29:18;99336.28;;;4.04;60.59
62548;BME280;48602;45.192;5.722;2023-03-01T08:31:43;99341.44;;;4.13;60.60
62548;BME280;48602;45.192;5.722;2023-03-01T08:34:12;99336.13;;;4.21;60.52
62548;BME280;48602;45.192;5.722;2023-03-01T08:36:39;99336.91;;;4.28;60.96
62548;BME280;48602;45.192;5.722;2023-03-01T08:39:05;99343.84;;;4.32;60.33
62548;BME280;48602;45.192;5.722;2023-03-01T08:41:31;99338.63;;;4.32;60.12
62548;BME280;48602;45.192;5.722;2023-03-01T08:43:56;99342.97;;;4.31;60.66
62548;BME280;48602;45.192;5.722;2023-03-01T08:46:36;99337.75;;;4.31;60.34
62548;BME280;48602;45.192;5.722;2023-03-01T08:49:15;99332.53;;;4.31;60.39
62548;BME280;48602;45.192;5.722;2023-03-01T08:51:47;99335.94;;;4.36;60.07
62548;BME280;48602;45.192;5.722;2023-03-01T08:54:15;99333.31;;;4.36;59.98
62548;BME280;48602;45.192;5.722;2023-03-01T08:56:41;99329.81;;;4.39;60.05
62548;BME280;48602;45.192;5.722;2023-03-01T08:59:07;99323.66;;;4.44;60.00
62548;BME280;48602;45.192;5.722;2023-03-01T09:01:33;99325.34;;;4.50;59.84
62548;BME280;48602;45.192;5.722;2023-03-01T09:03:58;99324.34;;;4.59;59.98
62548;BME280;48602;45.192;5.722;2023-03-01T09:06:30;99317.31;;;4.65;59.49
62548;BME280;48602;45.192;5.722;2023-03-01T09:08:55;99325.94;;;4.70;59.35
62548;BME280;48602;45.192;5.722;2023-03-01T09:11:21;99325.88;;;4.75;59.20
62548;BME280;48602;45.192;5.722;2023-03-01T09:13:48;99310.13;;;4.81;59.14
62548;BME280;48602;45.192;5.722;2023-03-01T09:16:16;99311.72;;;4.91;59.25
62548;BME280;48602;45.192;5.722;2023-03-01T09:18:48;99310.75;;;4.98;58.80
62548;BME280;48602;45.192;5.722;2023-03-01T09:21:16;99312.34;;;5.08;58.70
62548;BME280;48602;45.192;5.722;2023-03-01T09:23:43;99312.19;;;5.19;58.91
62548;BME280;48602;45.192;5.722;2023-03-01T09:26:13;99302.47;;;5.27;58.50
62548;BME280;48602;45.192;5.722;2023-03-01T09:28:41;99305.78;;;5.37;58.44
62548;BME280;48602;45.192;5.722;2023-03-01T09:31:07;99305.75;;;5.40;58.12
62548;BME280;48602;45.192;5.722;2023-03-01T09:33:33;99306.56;;;5.43;57.76
62548;BME280;48602;45.192;5.722;2023-03-01T09:36:03;99309.13;;;5.46;58.05
62548;BME280;48602;45.192;5.722;2023-03-01T09:38:31;99308.09;;;5.55;58.08
62548;BME280;48602;45.192;5.722;2023-03-01T09:40:57;99310.63;;;5.61;57.88
62548;BME280;48602;45.192;5.722;2023-03-01T09:44:10;99302.66;;;5.69;57.71
62548;BME280;48602;45.192;5.722;2023-03-01T09:46:20;99301.66;;;5.76;57.44
62548;BME280;48602;45.192;5.722;2023-03-01T09:49:01;99293.66;;;5.83;56.91
62548;BME280;48602;45.192;5.722;2023-03-01T09:51:35;99295.31;;;5.90;57.15
62548;BME280;48602;45.192;5.722;2023-03-01T09:54:02;99282.09;;;5.98;56.61
62548;BME280;48602;45.192;5.722;2023-03-01T09:56:44;99287.16;;;6.06;56.84
62548;BME280;48602;45.192;5.722;2023-03-01T10:04:50;99276.44;;;6.19;56.03
62548;BME280;48602;45.192;5.722;2023-03-01T10:09:59;99270.03;;;6.34;56.00
62548;BME280;48602;45.192;5.722;2023-03-01T10:12:33;99271.59;;;6.41;55.75
62548;BME280;48602;45.192;5.722;2023-03-01T10:15:14;99267.97;;;6.48;55.55
62548;BME280;48602;45.192;5.722;2023-03-01T10:22:48;99251.56;;;6.80;55.05
62548;BME280;48602;45.192;5.722;2023-03-01T10:25:32;99255.50;;;6.98;54.80
62548;BME280;48602;45.192;5.722;2023-03-01T10:28:23;99254.22;;;7.16;54.66
62548;BME280;48602;45.192;5.722;2023-03-01T10:30:50;99250.31;;;7.32;54.07
62548;BME280;48602;45.192;5.722;2023-03-01T10:33:40;99255.19;;;7.46;54.15
62548;BME280;48602;45.192;5.722;2023-03-01T10:36:05;99241.81;;;7.56;53.69
62548;BME280;48602;45.192;5.722;2023-03-01T10:38:47;99240.81;;;7.60;53.60
62548;BME280;48602;45.192;5.722;2023-03-01T10:41:13;99233.66;;;7.67;53.60
62548;BME280;48602;45.192;5.722;2023-03-01T10:46:31;99228.75;;;7.87;53.34
62548;BME280;48602;45.192;5.722;2023-03-01T10:51:33;99234.44;;;8.03;52.97
62548;BME280;48602;45.192;5.722;2023-03-01T10:53:58;99229.78;;;8.13;52.81
62548;BME280;48602;45.192;5.722;2023-03-01T10:56:24;99229.56;;;8.20;52.29
62548;BME280;48602;45.192;5.722;2023-03-01T11:01:32;99229.59;;;8.19;52.54
62548;BME280;48602;45.192;5.722;2023-03-01T11:04:11;99221.94;;;8.11;51.69
62548;BME280;48602;45.192;5.722;2023-03-01T11:06:39;99225.34;;;8.15;51.46
62548;BME280;48602;45.192;5.722;2023-03-01T11:09:20;99215.56;;;8.20;51.99
62548;BME280;48602;45.192;5.722;2023-03-01T11:11:46;99212.09;;;8.19;52.17
62548;BME280;48602;45.192;5.722;2023-03-01T11:14:20;99211.31;;;8.16;51.29
62548;BME280;48602;45.192;5.722;2023-03-01T11:16:58;99204.38;;;8.13;51.52
62548;BME280;48602;45.192;5.722;2023-03-01T11:19:25;99207.91;;;8.12;50.88
62548;BME280;48602;45.192;5.722;2023-03-01T11:24:23;99209.13;;;8.00;50.69
62548;BME280;48602;45.192;5.722;2023-03-01T11:26:54;99197.88;;;7.95;50.22
62548;BME280;48602;45.192;5.722;2023-03-01T11:31:52;99204.72;;;7.70;51.35
62548;BME280;48602;45.192;5.722;2023-03-01T11:34:25;99195.94;;;7.71;51.45
62548;BME280;48602;45.192;5.722;2023-03-01T11:36:58;99196.75;;;7.73;51.60
62548;BME280;48602;45.192;5.722;2023-03-01T11:39:39;99190.59;;;7.74;51.94
62548;BME280;48602;45.192;5.722;2023-03-01T11:42:12;99185.19;;;7.80;51.75
62548;BME280;48602;45.192;5.722;2023-03-01T11:44:39;99184.53;;;7.72;51.31
62548;BME280;48602;45.192;5.722;2023-03-01T11:47:24;99170.94;;;7.58;51.58
62548;BME280;48602;45.192;5.722;2023-03-01T11:55:20;99151.78;;;7.54;51.68
62548;BME280;48602;45.192;5.722;2023-03-01T11:58:26;99158.00;;;7.52;50.97
62548;BME280;48602;45.192;5.722;2023-03-01T12:17:30;99148.59;;;6.75;52.60
62548;BME280;48602;45.192;5.722;2023-03-01T12:23:51;99146.44;;;6.57;52.05
62548;BME280;48602;45.192;5.722;2023-03-01T12:26:35;99140.50;;;6.50;52.68
62548;BME280;48602;45.192;5.722;2023-03-01T12:29:23;99150.13;;;6.48;52.61
62548;BME280;48602;45.192;5.722;2023-03-01T12:32:22;99143.19;;;6.47;52.69
62548;BME280;48602;45.192;5.722;2023-03-01T12:40:41;99132.72;;;6.46;53.07
62548;BME280;48602;45.192;5.722;2023-03-01T12:51:09;99127.97;;;6.63;52.35
62548;BME280;48602;45.192;5.722;2023-03-01T12:53:41;99125.22;;;6.68;52.13
62548;BME280;48602;45.192;5.722;2023-03-01T12:56:15;99117.44;;;6.64;51.82
62548;BME280;48602;45.192;5.722;2023-03-01T13:07:18;99098.88;;;6.74;52.09
62548;BME280;48602;45.192;5.722;2023-03-01T13:12:50;99087.31;;;6.82;51.69
62548;BME280;48602;45.192;5.722;2023-03-01T13:17:48;99084.50;;;6.88;51.46
62548;BME280;48602;45.192;5.722;2023-03-01T13:20:19;99078.41;;;6.88;51.94
62548;BME280;48602;45.192;5.722;2023-03-01T13:22:46;99082.53;;;6.98;51.75
62548;BME280;48602;45.192;5.722;2023-03-01T13:25:16;99080.69;;;7.02;50.98
62548;BME280;48602;45.192;5.722;2023-03-01T13:27:43;99074.44;;;7.06;51.59
62548;BME280;48602;45.192;5.722;2023-03-01T13:35:55;99085.91;;;7.03;50.96
62548;BME280;48602;45.192;5.722;2023-03-01T13:47:00;99066.91;;;7.26;50.01
62548;BME280;48602;45.192;5.722;2023-03-01T13:49:35;99061.09;;;7.15;50.44
62548;BME280;48602;45.192;5.722;2023-03-01T13:52:06;99065.88;;;7.00;50.54
62548;BME280;48602;45.192;5.722;2023-03-01T13:54:39;99075.63;;;6.94;50.60
62548;BME280;48602;45.192;5.722;2023-03-01T13:57:04;99061.78;;;6.89;50.52
62548;BME280;48602;45.192;5.722;2023-03-01T13:59:30;99057.66;;;6.80;50.52
62548;BME280;48602;45.192;5.722;2023-03-01T14:01:58;99067.56;;;6.69;51.02
62548;BME280;48602;45.192;5.722;2023-03-01T14:07:08;99063.25;;;6.67;51.52
62548;BME280;48602;45.192;5.722;2023-03-01T14:09:41;99063.25;;;6.67;51.34
62548;BME280;48602;45.192;5.722;2023-03-01T14:20:28;99065.94;;;6.63;51.24
62548;BME280;48602;45.192;5.722;2023-03-01T14:22:58;99080.19;;;6.53;51.45
62548;BME280;48602;45.192;5.722;2023-03-01T14:25:36;99078.66;;;6.43;51.74
62548;BME280;48602;45.192;5.722;2023-03-01T14:28:16;99063.91;;;6.39;52.08
62548;BME280;48602;45.192;5.722;2023-03-01T14:30:56;99067.25;;;6.46;52.10
62548;BME280;48602;45.192;5.722;2023-03-01T14:33:28;99078.53;;;6.49;51.84
62548;BME280;48602;45.192;5.722;2023-03-01T14:36:13;99068.25;;;6.40;52.50
62548;BME280;48602;45.192;5.722;2023-03-01T14:41:11;99083.13;;;6.40;52.68
62548;BME280;48602;45.192;5.722;2023-03-01T14:43:43;99080.47;;;6.41;52.59
62548;BME280;48602;45.192;5.722;2023-03-01T14:46:21;99063.88;;;6.41;52.66
62548;BME280;48602;45.192;5.722;2023-03-01T14:48:54;99069.94;;;6.43;52.46
62548;BME280;48602;45.192;5.722;2023-03-01T14:51:21;99069.25;;;6.36;52.24
62548;BME280;48602;45.192;5.722;2023-03-01T14:53:46;99055.16;;;6.40;52.90
62548;BME280;48602;45.192;5.722;2023-03-01T14:56:14;99074.31;;;6.42;52.93
62548;BME280;48602;45.192;5.722;2023-03-01T14:58:40;99073.50;;;6.40;53.00
62548;BME280;48602;45.192;5.722;2023-03-01T15:01:07;99071.78;;;6.39;52.94
62548;BME280;48602;45.192;5.722;2023-03-01T15:03:42;99079.66;;;6.38;53.06
62548;BME280;48602;45.192;5.722;2023-03-01T15:06:10;99076.41;;;6.28;53.21
62548;BME280;48602;45.192;5.722;2023-03-01T15:08:42;99078.38;;;6.20;53.50
62548;BME280;48602;45.192;5.722;2023-03-01T15:13:40;99081.53;;;5.95;53.87
62548;BME280;48602;45.192;5.722;2023-03-01T15:16:12;99091.41;;;5.81;53.99
62548;BME280;48602;45.192;5.722;2023-03-01T15:18:49;99100.28;;;5.73;54.80
62548;BME280;48602;45.192;5.722;2023-03-01T15:21:18;99101.38;;;5.64;54.72
62548;BME280;48602;45.192;5.722;2023-03-01T15:23:52;99091.81;;;5.61;54.76